Bondville, Illinois
Current Conditions -  °F | °C
As of 4:15 PM on Sunday 23 Nov 2014 (Local Time) from KCMI Reporting Station
Heavy Rain Heavy Rain  
Wind Chill: 11°   Ceiling: 300
Heat Index: 11°   Visibility: 2mi
Dew Point: 11°   Wind: 12mph
Humidity: 100%   Direction: 130°SE
Pressure: 29.4"   Gusts: NA
Location:  40.11°N, 88.37°W
Report Text: KCMI 232215Z 13010KT 2SM +RA BR OVC003 11/11 A2940 RMK AO2 SFC VIS 2 1/2 P0005 T01060106 $
Loading
Personal Weather Stations






























Interactive Weather Map New forecast layout! Learn more

10-Day Weather Forecast

Advertisements
Track Severe Weather on mobile